Archival Weather

Ahwaz

Ahwaz, Iran (OIAW)

Report from: Sunday, October 1, 2023 10:00 AM +0330
Current time: Friday, July 19, 2024 7:04 AM +0330

Current weather – Weather history – Daily summaries
Weather forecast

Temperature29.0°C (84.2°F)
Heat index28.4°C (83.2°F)
Dew point12.0°C (53.6°F)
Winds 6 kts (3.1 m/s, 6.9 mph) South (190°)
Clouds Sky clear
Altimeter29.80 in.Hg (1009 mB)
Relative humidity35 %
Density altitude1,948 ft. (594 m)
Remarks Ceiling and visibility OK
Flight conditions Visual Meteorological Conditions
Raw dataOIAW 010630Z 19006KT CAVOK 29/12 Q1009
An error has occurred. This application may no longer respond until reloaded. Reload 🗙